createdAt,value
2023-01-19T05:26:42.221Z,149.9
2023-01-19T05:40:59.495Z,148.3
2023-01-19T05:55:07.873Z,148.8
2023-01-19T06:09:18.278Z,148.7
2023-01-19T06:23:27.975Z,148.6
2023-01-19T06:37:35.031Z,146.6
2023-01-19T06:51:42.706Z,145.3
2023-01-19T07:05:55.395Z,143.4
2023-01-19T07:20:04.293Z,142.4
2023-01-19T07:34:15.728Z,141.9
2023-01-19T07:48:27.949Z,142.7
2023-01-19T08:02:39.771Z,139.6
2023-01-19T08:16:52.600Z,138.1
2023-01-19T08:31:14.602Z,137
2023-01-19T08:45:15.002Z,135.5
2023-01-19T08:59:26.227Z,134.8
2023-01-19T09:13:37.133Z,133
2023-01-19T09:27:46.137Z,133.3
2023-01-19T09:41:57.327Z,132
2023-01-19T09:56:02.370Z,131.2
2023-01-19T10:10:12.996Z,131.7
2023-01-19T10:24:26.600Z,130.4
2023-01-19T10:38:38.987Z,130.7
2023-01-19T10:52:48.125Z,130.6
2023-01-19T11:07:01.287Z,131
2023-01-19T11:21:13.574Z,131.8
2023-01-19T11:35:24.706Z,132.2
2023-01-19T11:49:35.130Z,132.9
2023-01-19T12:03:45.509Z,133.6
2023-01-19T12:17:59.280Z,133.9
2023-01-19T12:33:04.053Z,136.3
2023-01-19T12:47:04.109Z,136.9
2023-01-19T13:01:19.022Z,136.7
2023-01-19T13:15:22.834Z,136.4
2023-01-19T13:29:33.897Z,135.9
2023-01-19T13:43:43.271Z,136.2
2023-01-19T13:57:57.857Z,136
2023-01-19T14:12:07.472Z,135.3
2023-01-19T14:26:18.635Z,133.9
2023-01-19T14:40:22.905Z,134.5
2023-01-19T14:54:32.390Z,133.4
2023-01-19T15:08:44.686Z,133.7
2023-01-19T15:22:56.714Z,132.6
2023-01-19T15:37:08.149Z,132
2023-01-19T15:51:17.935Z,129.4
2023-01-19T16:05:33.954Z,128.8
2023-01-19T16:19:37.078Z,128.3
2023-01-19T16:33:47.702Z,127
2023-01-19T16:47:59.193Z,124.5
2023-01-19T17:02:07.787Z,123
2023-01-19T17:16:19.881Z,122.2
2023-01-19T17:30:30.850Z,122.2
2023-01-19T17:58:53.106Z,120.4
2023-01-19T18:13:02.296Z,120.7
2023-01-19T18:27:11.965Z,119.5
2023-01-19T18:41:24.411Z,119.2
2023-01-19T18:55:36.369Z,119.7
2023-01-19T19:09:48.142Z,118.6
2023-01-19T19:23:59.537Z,117.3
2023-01-19T19:38:10.060Z,116.7
2023-01-19T19:52:18.802Z,115.3
2023-01-19T20:06:28.568Z,114.4
2023-01-19T20:20:36.925Z,112.7
2023-01-19T20:34:40.605Z,111.2
2023-01-19T20:48:47.922Z,110.3
2023-01-19T21:02:56.604Z,108.9
2023-01-19T21:17:05.219Z,107.6
2023-01-19T21:31:09.558Z,105.6
2023-01-19T21:45:18.849Z,103.9
2023-01-19T21:59:29.943Z,103.4
2023-01-19T22:13:41.024Z,101.9
2023-01-19T22:27:52.727Z,100.1
2023-01-19T22:42:04.810Z,99.8
2023-01-19T22:56:17.370Z,98.7
2023-01-19T23:10:29.669Z,97.4
2023-01-19T23:24:40.727Z,97.3
2023-01-19T23:38:50.201Z,98.1
